Jorge Wilsterman International Airport
SLCB : rendu visible

Aérodrome :











RETROUVEZ-NOUS SUR...

 
LOGIN :

S'inscrire | Disclaimer

   EN    FR    IT 

 









Légende :    VFR   VFR Marginal   IFR   IFR Intensif   IFR Très Intensif
Visi : 
Plafond : 
>= 8 km
>= 3000ft
5 à 8 km
1000 à 3000 ft
1500m à 5 km
500 à 1000 ft
800 à 1500m
200 à 500 ft
< 800m
< 200 ft
Symboles :   Orages  Brouillard  Fortes neiges  Fortes précipitations  Vent > 20 kt






- Altitude de l'aérodrome : 8360 ft
- Code IATA : CBB


SLCB - Jorge Wilsterman International

DERNIER METAR :
  • 222100Z 10005KT 9999 FEW036 27/M04 Q1021

METARs EXPIRÉS :
  • 222000Z 26005KT 9999 FEW036 26/M01 Q1021
  • 221900Z 10004KT 9999 FEW036 26/01 Q1022

TAF TAF SLCB
Valide du 22 à 18h jusqu'au 23 à 18h UTC


221600Z 2218/2318 28010KT 9999 FEW036 TX29/2219Z TN08/2311Z
BECMG 2303/2305 00000KT
FIR SLLF / Amérique du Sud



MET'MAP, la Météo Aéronautique d'un coup d'oeil ! - Copyright ORBIFLY Décembre 2007 - Disclaimer

ORBIFLY MET'MAP TEAM :

Programmation & Développement : Alexandra Zaïnal
Sur une idée originale de : Baudouin d'Aumeries
Assistance à la programmation : Marc-Olivier Méhu
Soutien technique & logistique : Manuel Goepfert

Contact : metmap@orbifly.com




SOURCES & CREDITS :

   NOAA       Earth
Advisory